createdAt,value
2023-05-08T00:00:10.089Z,16.77
2023-05-08T00:01:09.919Z,16.82
2023-05-08T00:02:09.982Z,16.83
2023-05-08T00:03:10.144Z,16.79
2023-05-08T00:04:10.191Z,16.83
2023-05-08T00:05:10.042Z,16.66
2023-05-08T00:06:10.124Z,16.25
2023-05-08T00:07:10.141Z,16.07
2023-05-08T00:08:10.164Z,15.66
2023-05-08T00:09:10.199Z,15.75
2023-05-08T00:10:10.348Z,15.83
2023-05-08T00:11:10.257Z,16.01
2023-05-08T00:12:10.265Z,16.14
2023-05-08T00:13:10.327Z,16.03
2023-05-08T00:14:10.357Z,16.01
2023-05-08T00:15:10.444Z,16.12
2023-05-08T00:16:10.519Z,16.09
2023-05-08T00:17:10.504Z,16.23
2023-05-08T00:18:10.548Z,16.31
2023-05-08T00:19:10.604Z,16.38
2023-05-08T00:20:10.831Z,16.30
2023-05-08T00:21:10.660Z,16.10
2023-05-08T00:22:10.712Z,16.15
2023-05-08T00:23:10.747Z,16.26
2023-05-08T00:24:10.783Z,16.35
2023-05-08T00:25:10.800Z,16.43
2023-05-08T00:26:10.864Z,16.51
2023-05-08T00:27:10.877Z,16.59
2023-05-08T00:28:10.920Z,16.64
2023-05-08T00:29:10.946Z,16.69
2023-05-08T00:30:11.214Z,16.74
2023-05-08T00:31:11.024Z,16.74
2023-05-08T00:32:11.070Z,16.73
2023-05-08T00:33:11.121Z,16.72
2023-05-08T00:34:11.081Z,16.69
2023-05-08T00:35:11.120Z,16.49
2023-05-08T00:36:11.177Z,16.34
2023-05-08T00:37:11.195Z,16.35
2023-05-08T00:38:11.256Z,16.29
2023-05-08T00:39:11.244Z,16.04
2023-05-08T00:40:11.536Z,16.08
2023-05-08T00:41:11.299Z,16.10
2023-05-08T00:42:11.338Z,15.98
2023-05-08T00:43:11.323Z,15.95
2023-05-08T00:44:11.340Z,15.94
2023-05-08T00:45:11.387Z,15.86
2023-05-08T00:46:11.431Z,15.72
2023-05-08T00:47:11.411Z,15.65
2023-05-08T00:48:11.470Z,15.68
2023-05-08T00:49:11.492Z,15.79
2023-05-08T00:50:11.744Z,15.89
2023-05-08T00:51:11.550Z,15.97
2023-05-08T00:52:11.581Z,15.99
2023-05-08T00:53:11.576Z,16.02
2023-05-08T00:54:11.615Z,16.03
2023-05-08T00:55:11.656Z,16.08
2023-05-08T00:56:11.708Z,16.10
2023-05-08T00:57:11.750Z,16.16
2023-05-08T00:58:11.806Z,16.17
2023-05-08T00:59:11.796Z,16.10
2023-05-08T01:00:12.088Z,16.15
2023-05-08T01:01:11.972Z,16.22
2023-05-08T01:02:11.920Z,16.27
2023-05-08T01:03:12.124Z,16.31
2023-05-08T01:04:11.931Z,16.29
2023-05-08T01:05:11.965Z,16.34
2023-05-08T01:06:12.042Z,16.29
2023-05-08T01:07:12.038Z,16.29
2023-05-08T01:08:12.091Z,16.27
2023-05-08T01:09:12.133Z,16.17
2023-05-08T01:10:12.367Z,15.97
2023-05-08T01:11:12.153Z,16.02
2023-05-08T01:12:12.191Z,16.13
2023-05-08T01:13:12.286Z,16.20
2023-05-08T01:14:12.227Z,16.29
2023-05-08T01:15:12.305Z,16.33
2023-05-08T01:16:12.389Z,16.23
2023-05-08T01:17:12.364Z,16.26
2023-05-08T01:18:12.385Z,16.32
2023-05-08T01:19:12.427Z,16.40
2023-05-08T01:20:12.840Z,16.46
2023-05-08T01:21:12.509Z,16.51
2023-05-08T01:22:12.553Z,16.58
2023-05-08T01:23:12.610Z,16.59
2023-05-08T01:24:12.631Z,16.62
2023-05-08T01:25:12.672Z,16.59
2023-05-08T01:26:12.716Z,16.44
2023-05-08T01:27:12.777Z,16.40
2023-05-08T01:28:12.764Z,16.38
2023-05-08T01:29:12.819Z,16.42
2023-05-08T01:30:13.004Z,16.45
2023-05-08T01:31:12.884Z,16.35
2023-05-08T01:32:12.927Z,16.33
2023-05-08T01:33:12.969Z,16.30
2023-05-08T01:34:12.928Z,16.20
2023-05-08T01:35:12.969Z,16.18
2023-05-08T01:36:13.015Z,16.20
2023-05-08T01:37:13.016Z,16.22
2023-05-08T01:38:13.063Z,16.26
2023-05-08T01:39:13.093Z,16.28
2023-05-08T01:40:13.476Z,16.29
2023-05-08T01:41:13.186Z,16.30
2023-05-08T01:42:13.231Z,16.34
2023-05-08T01:43:13.227Z,16.34
2023-05-08T01:44:13.252Z,16.25
2023-05-08T01:45:13.285Z,16.30
2023-05-08T01:46:13.330Z,16.35
2023-05-08T01:47:13.384Z,16.39
2023-05-08T01:48:13.369Z,16.41
2023-05-08T01:49:13.446Z,16.37
2023-05-08T01:50:13.645Z,16.32
2023-05-08T01:51:13.422Z,16.25
2023-05-08T01:52:13.460Z,16.30
2023-05-08T01:53:13.508Z,16.38
2023-05-08T01:54:13.464Z,16.42
2023-05-08T01:55:13.530Z,16.44
2023-05-08T01:56:13.547Z,16.44
2023-05-08T01:57:13.598Z,16.43
2023-05-08T01:58:13.657Z,16.39
2023-05-08T01:59:13.714Z,16.45
2023-05-08T02:00:13.953Z,16.45
2023-05-08T02:01:13.838Z,16.51
2023-05-08T02:02:13.767Z,16.52
2023-05-08T02:03:13.886Z,16.52
2023-05-08T02:04:13.840Z,16.57
2023-05-08T02:05:13.784Z,16.50
2023-05-08T02:06:13.846Z,16.46
2023-05-08T02:07:13.886Z,16.52
2023-05-08T02:08:13.933Z,16.57
2023-05-08T02:09:13.975Z,16.59
2023-05-08T02:10:14.303Z,16.63
2023-05-08T02:11:14.064Z,16.62
2023-05-08T02:12:14.072Z,16.59
2023-05-08T02:13:14.160Z,16.55
2023-05-08T02:14:14.154Z,16.58
2023-05-08T02:15:14.166Z,16.62
2023-05-08T02:16:14.325Z,16.62
2023-05-08T02:17:14.245Z,16.60
2023-05-08T02:18:14.282Z,16.56
2023-05-08T02:19:14.293Z,16.58
2023-05-08T02:20:14.396Z,16.56
2023-05-08T02:21:14.302Z,16.54
2023-05-08T02:22:14.295Z,16.56
2023-05-08T02:23:14.339Z,16.55
2023-05-08T02:24:14.342Z,16.48
2023-05-08T02:25:14.389Z,16.43
2023-05-08T02:26:14.387Z,16.43
2023-05-08T02:27:14.413Z,16.46
2023-05-08T02:28:14.456Z,16.46
2023-05-08T02:29:14.518Z,16.45
2023-05-08T02:30:14.796Z,16.42
2023-05-08T02:31:14.599Z,16.41
2023-05-08T02:32:14.767Z,16.40
2023-05-08T02:33:14.703Z,16.41
2023-05-08T02:34:14.692Z,16.40
2023-05-08T02:35:14.721Z,16.39
2023-05-08T02:36:14.757Z,16.37
2023-05-08T02:37:14.806Z,16.38
2023-05-08T02:38:14.852Z,16.38
2023-05-08T02:39:14.941Z,16.39
2023-05-08T02:40:15.102Z,16.41
2023-05-08T02:41:14.958Z,16.41
2023-05-08T02:42:15.006Z,16.40
2023-05-08T02:43:15.002Z,16.43
2023-05-08T02:44:15.004Z,16.39
2023-05-08T02:45:15.035Z,16.43
2023-05-08T02:46:15.138Z,16.47
2023-05-08T02:47:15.086Z,16.50
2023-05-08T02:48:15.095Z,16.48
2023-05-08T02:49:15.150Z,16.36
2023-05-08T02:50:15.189Z,16.22
2023-05-08T02:51:15.207Z,16.20
2023-05-08T02:52:15.290Z,16.29
2023-05-08T02:53:15.301Z,16.30
2023-05-08T02:54:15.381Z,16.28
2023-05-08T02:55:15.424Z,16.14
2023-05-08T02:56:15.451Z,16.16
2023-05-08T02:57:15.513Z,16.14
2023-05-08T02:58:15.531Z,16.16
2023-05-08T02:59:15.584Z,16.16
2023-05-08T03:00:15.588Z,16.18
2023-05-08T03:01:15.607Z,16.22
2023-05-08T03:02:15.742Z,16.21
2023-05-08T03:03:15.894Z,16.26
2023-05-08T03:04:15.750Z,16.30
2023-05-08T03:05:15.807Z,16.31
2023-05-08T03:06:15.837Z,16.31
2023-05-08T03:07:15.824Z,16.29
2023-05-08T03:08:15.884Z,16.28
2023-05-08T03:09:15.912Z,16.29
2023-05-08T03:10:16.002Z,16.25
2023-05-08T03:11:16.045Z,16.26
2023-05-08T03:12:16.071Z,16.26
2023-05-08T03:13:16.108Z,16.24
2023-05-08T03:14:16.147Z,16.25
2023-05-08T03:15:16.120Z,16.26
2023-05-08T03:16:16.219Z,16.27
2023-05-08T03:17:16.174Z,16.30
2023-05-08T03:18:16.189Z,16.27
2023-05-08T03:19:16.203Z,16.28
2023-05-08T03:20:16.226Z,16.32
2023-05-08T03:21:16.266Z,16.34
2023-05-08T03:22:16.314Z,16.37
2023-05-08T03:23:16.387Z,16.37
2023-05-08T03:24:16.309Z,16.33
2023-05-08T03:25:16.325Z,16.33
2023-05-08T03:26:16.375Z,16.31
2023-05-08T03:27:16.441Z,16.29
2023-05-08T03:28:16.463Z,16.29
2023-05-08T03:29:16.530Z,16.28
2023-05-08T03:30:16.528Z,16.22
2023-05-08T03:31:16.600Z,16.15
2023-05-08T03:32:16.660Z,16.14
2023-05-08T03:33:16.667Z,16.17
2023-05-08T03:34:16.738Z,16.08
2023-05-08T03:35:16.716Z,16.06
2023-05-08T03:36:16.767Z,15.91
2023-05-08T03:37:16.770Z,15.85
2023-05-08T03:38:16.783Z,15.79
2023-05-08T03:39:16.801Z,15.76
2023-05-08T03:40:16.845Z,15.76
2023-05-08T03:41:16.844Z,15.74
2023-05-08T03:42:16.868Z,15.77
2023-05-08T03:43:16.924Z,15.79
2023-05-08T03:44:16.924Z,15.81
2023-05-08T03:45:16.944Z,15.81
2023-05-08T03:46:17.003Z,15.88
2023-05-08T03:47:17.047Z,15.96
2023-05-08T03:48:17.074Z,16.00
2023-05-08T03:49:17.111Z,16.04
2023-05-08T03:50:17.107Z,16.00
2023-05-08T03:51:17.133Z,16.06
2023-05-08T03:52:17.136Z,16.10
2023-05-08T03:53:17.186Z,16.13
2023-05-08T03:54:17.187Z,16.12
2023-05-08T03:55:17.166Z,16.16
2023-05-08T03:56:17.209Z,16.21
2023-05-08T03:57:17.216Z,16.23
2023-05-08T03:58:17.251Z,16.22
2023-05-08T03:59:17.298Z,16.22
2023-05-08T04:00:17.286Z,16.25
2023-05-08T04:01:17.299Z,16.27
2023-05-08T04:02:17.389Z,16.31
2023-05-08T04:03:17.458Z,16.32
2023-05-08T04:04:17.481Z,16.29
2023-05-08T04:05:17.418Z,16.26
2023-05-08T04:06:17.446Z,16.25
2023-05-08T04:07:17.486Z,16.28
2023-05-08T04:08:17.496Z,16.30
2023-05-08T04:09:17.461Z,16.30
2023-05-08T04:10:17.504Z,16.24
2023-05-08T04:11:17.517Z,16.23
2023-05-08T04:12:17.552Z,16.23
2023-05-08T04:13:17.586Z,16.23
2023-05-08T04:14:17.555Z,16.17
2023-05-08T04:15:17.615Z,16.12
2023-05-08T04:16:17.661Z,16.15
2023-05-08T04:17:17.641Z,16.16
2023-05-08T04:18:17.625Z,16.19
2023-05-08T04:19:17.689Z,16.19
2023-05-08T04:20:17.689Z,16.17
2023-05-08T04:21:17.747Z,16.16
2023-05-08T04:22:17.855Z,16.18
2023-05-08T04:23:17.847Z,16.24
2023-05-08T04:24:17.876Z,16.25
2023-05-08T04:25:17.914Z,16.25
2023-05-08T04:26:17.959Z,16.20
2023-05-08T04:27:17.981Z,16.18
2023-05-08T04:28:17.998Z,16.15
2023-05-08T04:29:18.035Z,16.05
2023-05-08T04:30:18.066Z,15.93
2023-05-08T04:31:18.192Z,15.96
2023-05-08T04:32:18.260Z,15.97
2023-05-08T04:33:18.249Z,16.02
2023-05-08T04:34:18.234Z,16.10
2023-05-08T04:35:18.279Z,16.15
2023-05-08T04:36:18.288Z,16.16
2023-05-08T04:37:18.320Z,16.21
2023-05-08T04:38:18.361Z,16.21
2023-05-08T04:39:18.379Z,16.21
2023-05-08T04:40:18.416Z,16.20
2023-05-08T04:41:18.480Z,16.21
2023-05-08T04:42:18.496Z,16.22
2023-05-08T04:43:18.570Z,16.23
2023-05-08T04:44:18.654Z,16.26
2023-05-08T04:45:18.675Z,16.26
2023-05-08T04:46:18.748Z,16.20
2023-05-08T04:47:18.718Z,16.12
2023-05-08T04:48:18.773Z,16.09
2023-05-08T04:49:18.771Z,16.03
2023-05-08T04:50:18.774Z,16.01
2023-05-08T04:51:18.893Z,16.02
2023-05-08T04:52:18.918Z,15.95
2023-05-08T04:53:18.909Z,15.88
2023-05-08T04:54:18.962Z,15.85
2023-05-08T04:55:18.953Z,15.83
2023-05-08T04:56:19.032Z,15.79
2023-05-08T04:57:19.045Z,15.81
2023-05-08T04:58:19.103Z,15.89
2023-05-08T04:59:19.115Z,15.87
2023-05-08T05:00:19.153Z,15.86
2023-05-08T05:01:19.167Z,15.84
2023-05-08T05:02:19.203Z,15.84
2023-05-08T05:03:19.249Z,15.90
2023-05-08T05:04:19.203Z,15.93
2023-05-08T05:05:19.221Z,15.81
2023-05-08T05:06:19.252Z,15.61
2023-05-08T05:07:19.293Z,15.52
2023-05-08T05:08:19.319Z,15.34
2023-05-08T05:09:19.331Z,15.17
2023-05-08T05:10:19.382Z,15.14
2023-05-08T05:11:19.399Z,15.24
2023-05-08T05:12:19.396Z,15.30
2023-05-08T05:13:19.492Z,15.31
2023-05-08T05:14:19.500Z,15.28
2023-05-08T05:15:19.468Z,15.26
2023-05-08T05:16:19.614Z,15.31
2023-05-08T05:17:19.543Z,15.28
2023-05-08T05:18:19.564Z,14.98
2023-05-08T05:19:19.629Z,14.93
2023-05-08T05:20:19.658Z,15.03
2023-05-08T05:21:19.686Z,15.11
2023-05-08T05:22:19.740Z,15.21
2023-05-08T05:23:19.762Z,15.33
2023-05-08T05:24:19.823Z,15.43
2023-05-08T05:25:19.860Z,15.45
2023-05-08T05:26:19.886Z,15.50
2023-05-08T05:27:21.341Z,15.49
2023-05-08T05:28:19.913Z,15.50
2023-05-08T05:29:19.941Z,15.47
2023-05-08T05:30:20.013Z,15.50
2023-05-08T05:31:20.105Z,15.52
2023-05-08T05:32:20.076Z,15.56
2023-05-08T05:33:20.101Z,15.56
2023-05-08T05:34:20.113Z,15.48
2023-05-08T05:35:20.124Z,15.49
2023-05-08T05:36:20.157Z,15.48
2023-05-08T05:37:20.212Z,15.37
2023-05-08T05:38:20.197Z,15.31
2023-05-08T05:39:20.254Z,15.34
2023-05-08T05:40:20.294Z,15.36
2023-05-08T05:41:20.321Z,15.37
2023-05-08T05:42:20.344Z,15.42
2023-05-08T05:43:20.381Z,15.43
2023-05-08T05:44:20.406Z,15.32
2023-05-08T05:45:20.452Z,15.37
2023-05-08T05:46:20.480Z,15.37
2023-05-08T05:47:21.069Z,15.43
2023-05-08T05:48:20.576Z,15.50
2023-05-08T05:49:20.524Z,15.50
2023-05-08T05:50:20.590Z,15.41
2023-05-08T05:51:20.594Z,15.41
2023-05-08T05:52:20.628Z,15.29
2023-05-08T05:53:20.666Z,15.28
2023-05-08T05:54:20.715Z,15.31
2023-05-08T05:55:20.772Z,15.33
2023-05-08T05:56:20.799Z,15.36
2023-05-08T05:57:20.985Z,15.41
2023-05-08T05:58:20.769Z,15.49
2023-05-08T05:59:20.804Z,15.59
2023-05-08T06:00:20.862Z,15.65
2023-05-08T06:01:20.868Z,15.69
2023-05-08T06:02:20.921Z,15.72
2023-05-08T06:03:20.966Z,15.70
2023-05-08T06:04:20.930Z,15.69
2023-05-08T06:05:20.976Z,15.72
2023-05-08T06:06:20.993Z,15.75
2023-05-08T06:07:21.050Z,15.75
2023-05-08T06:08:21.528Z,15.80
2023-05-08T06:09:21.047Z,15.84
2023-05-08T06:10:21.078Z,15.86
2023-05-08T06:11:21.130Z,15.79
2023-05-08T06:12:21.173Z,15.79
2023-05-08T06:13:21.304Z,15.75
2023-05-08T06:14:21.196Z,15.78
2023-05-08T06:15:21.257Z,15.82
2023-05-08T06:16:21.291Z,15.76
2023-05-08T06:17:21.306Z,15.61
2023-05-08T06:18:21.348Z,15.59
2023-05-08T06:19:21.408Z,15.47
2023-05-08T06:20:21.404Z,15.45
2023-05-08T06:21:21.450Z,15.48
2023-05-08T06:22:21.428Z,15.49
2023-05-08T06:23:21.475Z,15.42
2023-05-08T06:24:21.529Z,15.35
2023-05-08T06:25:21.574Z,15.36
2023-05-08T06:27:21.595Z,15.36
2023-05-08T06:28:21.630Z,15.41
2023-05-08T06:29:21.685Z,15.48
2023-05-08T06:30:21.752Z,15.58
2023-05-08T06:31:21.782Z,15.64
2023-05-08T06:32:21.863Z,15.64
2023-05-08T06:33:22.293Z,15.63
2023-05-08T06:34:21.890Z,15.70
2023-05-08T06:35:22.173Z,15.76
2023-05-08T06:36:21.943Z,15.71
2023-05-08T06:37:21.959Z,15.75
2023-05-08T06:38:21.988Z,15.70
2023-05-08T06:39:22.504Z,15.60
2023-05-08T06:40:22.075Z,15.57
2023-05-08T06:41:22.089Z,15.67
2023-05-08T06:42:22.148Z,15.70
2023-05-08T06:43:22.221Z,15.68
2023-05-08T06:44:22.194Z,15.66
2023-05-08T06:45:22.256Z,15.65
2023-05-08T06:46:22.331Z,15.68
2023-05-08T06:47:22.318Z,15.60
2023-05-08T06:48:22.325Z,15.59
2023-05-08T06:49:22.360Z,15.58
2023-05-08T06:50:22.384Z,15.54
2023-05-08T06:51:22.406Z,15.48
2023-05-08T06:52:22.452Z,15.50
2023-05-08T06:53:22.511Z,15.59
2023-05-08T06:54:22.521Z,15.69
2023-05-08T06:55:22.544Z,15.74
2023-05-08T06:56:22.579Z,15.75
2023-05-08T06:57:22.598Z,15.68
2023-05-08T06:58:22.613Z,15.74
2023-05-08T06:59:23.501Z,15.85
2023-05-08T07:00:22.663Z,15.91
2023-05-08T07:01:22.758Z,15.95
2023-05-08T07:02:22.777Z,15.96
2023-05-08T07:03:22.778Z,15.87
2023-05-08T07:04:22.908Z,15.81
2023-05-08T07:05:22.825Z,15.83
2023-05-08T07:06:22.847Z,15.91
2023-05-08T07:07:22.913Z,15.93
2023-05-08T07:08:22.972Z,15.97
2023-05-08T07:09:23.039Z,16.01
2023-05-08T07:10:23.542Z,15.86
2023-05-08T07:11:23.092Z,15.80
2023-05-08T07:12:23.125Z,15.84
2023-05-08T07:13:23.194Z,15.86
2023-05-08T07:14:23.483Z,15.90
2023-05-08T07:15:26.461Z,15.93
2023-05-08T07:16:23.222Z,15.99
2023-05-08T07:17:23.264Z,16.09
2023-05-08T07:18:23.499Z,16.09
2023-05-08T07:19:23.195Z,16.06
2023-05-08T07:20:23.161Z,16.14
2023-05-08T07:21:23.174Z,16.12
2023-05-08T07:22:23.216Z,16.14
2023-05-08T07:23:23.170Z,16.16
2023-05-08T07:24:23.163Z,16.17
2023-05-08T07:25:23.137Z,16.18
2023-05-08T07:26:23.136Z,16.04
2023-05-08T07:27:23.108Z,15.92
2023-05-08T07:28:23.103Z,15.85
2023-05-08T07:29:23.116Z,15.86
2023-05-08T07:30:23.114Z,15.90
2023-05-08T07:31:23.098Z,15.96
2023-05-08T07:32:23.150Z,15.98
2023-05-08T07:33:23.089Z,15.95
2023-05-08T07:34:23.091Z,15.91
2023-05-08T07:35:23.499Z,15.67
2023-05-08T07:36:23.078Z,15.61
2023-05-08T07:37:23.040Z,15.67
2023-05-08T07:38:23.049Z,15.77
2023-05-08T07:39:23.063Z,15.83
2023-05-08T07:40:23.107Z,15.86
2023-05-08T07:41:25.818Z,15.89
2023-05-08T07:42:23.046Z,15.95
2023-05-08T07:43:23.040Z,16.04
2023-05-08T07:44:23.051Z,16.07
2023-05-08T07:45:22.992Z,16.05
2023-05-08T07:46:23.073Z,16.07
2023-05-08T07:47:23.044Z,16.14
2023-05-08T07:48:22.983Z,16.20
2023-05-08T07:49:22.999Z,16.18
2023-05-08T07:50:23.067Z,16.21
2023-05-08T07:51:22.985Z,16.26
2023-05-08T07:52:22.981Z,16.18
2023-05-08T07:53:22.987Z,16.13
2023-05-08T07:54:22.924Z,16.14
2023-05-08T07:55:22.977Z,16.15
2023-05-08T07:56:22.924Z,16.14
2023-05-08T07:57:22.931Z,16.22
2023-05-08T07:58:24.016Z,16.18
2023-05-08T07:59:23.035Z,16.20
2023-05-08T08:00:23.001Z,16.26
2023-05-08T08:01:22.921Z,16.27
2023-05-08T08:02:23.031Z,16.29
2023-05-08T08:03:22.981Z,16.29
2023-05-08T08:04:23.017Z,16.30
2023-05-08T08:05:22.890Z,16.32
2023-05-08T08:06:22.876Z,16.26
2023-05-08T08:07:22.880Z,16.14
2023-05-08T08:08:22.849Z,16.10
2023-05-08T08:09:22.882Z,16.05
2023-05-08T08:10:22.913Z,15.95
2023-05-08T08:11:22.930Z,15.85
2023-05-08T08:12:22.839Z,15.86
2023-05-08T08:13:22.899Z,15.76
2023-05-08T08:14:22.860Z,15.73
2023-05-08T08:15:22.843Z,15.77
2023-05-08T08:16:22.848Z,15.79
2023-05-08T08:17:22.959Z,15.87
2023-05-08T08:18:23.282Z,15.94
2023-05-08T08:19:22.797Z,16.03
2023-05-08T08:20:22.833Z,16.10
2023-05-08T08:21:22.801Z,16.14
2023-05-08T08:22:22.773Z,16.15
2023-05-08T08:23:22.771Z,16.21
2023-05-08T08:24:22.787Z,16.20
2023-05-08T08:25:22.830Z,16.21
2023-05-08T08:26:22.719Z,16.19
2023-05-08T08:27:22.845Z,16.17
2023-05-08T08:28:22.755Z,16.12
2023-05-08T08:29:23.027Z,16.16
2023-05-08T08:30:22.756Z,16.34
2023-05-08T08:31:22.864Z,16.47
2023-05-08T08:32:22.828Z,16.58
2023-05-08T08:33:22.746Z,16.62
2023-05-08T08:34:22.739Z,16.58
2023-05-08T08:35:22.755Z,16.59
2023-05-08T08:36:22.722Z,16.58
2023-05-08T08:37:22.770Z,16.60
2023-05-08T08:38:22.779Z,16.71
2023-05-08T08:39:22.798Z,16.82
2023-05-08T08:40:22.898Z,16.90
2023-05-08T08:41:22.922Z,16.91
2023-05-08T08:42:22.963Z,16.95
2023-05-08T08:43:23.040Z,16.87
2023-05-08T08:44:23.024Z,16.79
2023-05-08T08:45:23.066Z,16.83
2023-05-08T08:46:23.125Z,16.91
2023-05-08T08:47:23.153Z,16.92
2023-05-08T08:48:23.196Z,16.92
2023-05-08T08:49:23.220Z,16.97
2023-05-08T08:50:23.295Z,16.90
2023-05-08T08:51:23.218Z,16.83
2023-05-08T08:52:23.307Z,16.86
2023-05-08T08:53:23.391Z,16.90
2023-05-08T08:54:23.369Z,16.89
2023-05-08T08:55:23.540Z,16.91
2023-05-08T08:56:23.414Z,16.89
2023-05-08T08:57:23.567Z,16.92
2023-05-08T08:58:23.526Z,17.00
2023-05-08T08:59:23.655Z,17.10
2023-05-08T09:00:23.561Z,17.02
2023-05-08T09:01:23.668Z,16.96
2023-05-08T09:02:23.726Z,17.02
2023-05-08T09:03:23.807Z,16.98
2023-05-08T09:04:23.721Z,16.93
2023-05-08T09:05:23.742Z,16.99
2023-05-08T09:06:23.773Z,17.06
2023-05-08T09:07:23.799Z,17.17
2023-05-08T09:08:23.803Z,17.24
2023-05-08T09:09:23.817Z,17.33
2023-05-08T09:10:23.859Z,17.45
2023-05-08T09:11:23.850Z,17.55
2023-05-08T09:12:23.953Z,17.66
2023-05-08T09:13:24.016Z,17.69
2023-05-08T09:14:23.973Z,17.65
2023-05-08T09:15:24.082Z,17.72
2023-05-08T09:16:24.082Z,17.77
2023-05-08T09:17:24.086Z,17.86
2023-05-08T09:18:24.081Z,17.91
2023-05-08T09:19:27.011Z,17.94
2023-05-08T09:20:24.083Z,18.00
2023-05-08T09:21:24.114Z,18.04
2023-05-08T09:22:24.132Z,18.11
2023-05-08T09:23:24.131Z,18.20
2023-05-08T09:24:24.076Z,18.26
2023-05-08T09:25:24.054Z,18.31
2023-05-08T09:26:24.068Z,18.33
2023-05-08T09:27:24.069Z,18.36
2023-05-08T09:28:24.085Z,18.40
2023-05-08T09:29:24.051Z,18.48
2023-05-08T09:30:24.059Z,18.45
2023-05-08T09:31:24.128Z,18.47
2023-05-08T09:32:24.048Z,18.53
2023-05-08T09:33:24.049Z,18.58
2023-05-08T09:34:24.002Z,18.65
2023-05-08T09:35:24.008Z,18.70
2023-05-08T09:36:23.998Z,18.73
2023-05-08T09:37:23.990Z,18.79
2023-05-08T09:38:24.033Z,18.80
2023-05-08T09:39:24.028Z,18.80
2023-05-08T09:40:24.010Z,18.76
2023-05-08T09:41:23.997Z,18.72
2023-05-08T09:42:24.008Z,18.77
2023-05-08T09:43:24.029Z,18.80
2023-05-08T09:44:24.074Z,18.81
2023-05-08T09:45:24.127Z,18.91
2023-05-08T09:46:24.377Z,18.98
2023-05-08T09:47:24.394Z,19.04
2023-05-08T09:48:24.230Z,19.13
2023-05-08T09:49:24.315Z,19.15
2023-05-08T09:50:24.538Z,19.20
2023-05-08T09:51:24.321Z,19.21
2023-05-08T09:52:24.355Z,19.27
2023-05-08T09:53:24.359Z,19.26
2023-05-08T09:54:24.403Z,19.25
2023-05-08T09:55:24.423Z,19.23
2023-05-08T09:56:24.561Z,19.22
2023-05-08T09:57:24.455Z,19.30
2023-05-08T09:58:24.504Z,19.31
2023-05-08T09:59:24.514Z,19.04
2023-05-08T10:00:24.563Z,18.99
2023-05-08T10:01:24.650Z,19.06
2023-05-08T10:02:24.704Z,19.11
2023-05-08T10:03:24.815Z,19.17
2023-05-08T10:04:24.793Z,19.28
2023-05-08T10:05:24.838Z,19.40
2023-05-08T10:06:24.739Z,19.53
2023-05-08T10:07:24.775Z,19.63
2023-05-08T10:08:24.867Z,19.74
2023-05-08T10:09:26.161Z,19.81
2023-05-08T10:10:24.985Z,19.86
2023-05-08T10:11:25.005Z,19.89
2023-05-08T10:12:25.062Z,20.01
2023-05-08T10:13:25.207Z,20.14
2023-05-08T10:14:25.109Z,20.21
2023-05-08T10:15:25.149Z,20.29
2023-05-08T10:16:25.155Z,20.40
2023-05-08T10:17:25.172Z,20.51
2023-05-08T10:18:25.183Z,20.52
2023-05-08T10:19:25.238Z,20.59
2023-05-08T10:20:25.176Z,20.63
2023-05-08T10:21:25.190Z,20.64
2023-05-08T10:22:25.220Z,20.67
2023-05-08T10:23:25.267Z,20.62
2023-05-08T10:24:25.347Z,20.66
2023-05-08T10:25:25.357Z,20.74
2023-05-08T10:26:25.345Z,20.66
2023-05-08T10:27:25.427Z,20.68
2023-05-08T10:28:25.458Z,20.70
2023-05-08T10:29:25.520Z,20.79
2023-05-08T10:30:25.508Z,20.92
2023-05-08T10:31:25.618Z,21.03
2023-05-08T10:32:25.568Z,21.04
2023-05-08T10:33:25.575Z,21.14
2023-05-08T10:34:25.580Z,21.16
2023-05-08T10:35:25.700Z,21.17
2023-05-08T10:36:25.621Z,21.22
2023-05-08T10:37:25.639Z,21.10
2023-05-08T10:38:25.705Z,21.17
2023-05-08T10:39:25.759Z,21.30
2023-05-08T10:40:25.782Z,21.48
2023-05-08T10:41:25.814Z,21.61
2023-05-08T10:42:25.890Z,21.64
2023-05-08T10:43:25.896Z,21.65
2023-05-08T10:44:25.880Z,21.57
2023-05-08T10:45:26.078Z,21.70
2023-05-08T10:46:25.962Z,21.76
2023-05-08T10:47:25.965Z,21.90
2023-05-08T10:48:25.982Z,21.92
2023-05-08T10:49:26.025Z,22.02
2023-05-08T10:50:26.073Z,22.03
2023-05-08T10:51:26.146Z,21.94
2023-05-08T10:52:26.218Z,21.99
2023-05-08T10:53:26.241Z,21.93
2023-05-08T10:54:27.922Z,21.93
2023-05-08T10:55:26.304Z,22.03
2023-05-08T10:56:26.357Z,21.99
2023-05-08T10:57:26.353Z,21.92
2023-05-08T10:58:26.408Z,21.95
2023-05-08T10:59:26.434Z,22.00
2023-05-08T11:00:26.452Z,21.93
2023-05-08T11:01:26.528Z,21.87
2023-05-08T11:02:26.670Z,21.85
2023-05-08T11:03:32.296Z,21.61
2023-05-08T11:04:27.599Z,21.50
2023-05-08T11:05:26.489Z,21.49
2023-05-08T11:06:26.514Z,21.20
2023-05-08T11:07:26.519Z,21.21
2023-05-08T11:08:26.489Z,21.41
2023-05-08T11:09:26.476Z,21.49
2023-05-08T11:10:26.462Z,21.37
2023-05-08T11:11:26.463Z,21.30
2023-05-08T11:12:26.458Z,21.29
2023-05-08T11:13:26.519Z,21.50
2023-05-08T11:14:26.458Z,21.65
2023-05-08T11:15:26.467Z,21.85
2023-05-08T11:16:26.444Z,21.93
2023-05-08T11:17:26.439Z,21.98
2023-05-08T11:18:28.064Z,21.74
2023-05-08T11:19:27.489Z,21.45
2023-05-08T11:20:26.446Z,21.54
2023-05-08T11:21:26.439Z,21.37
2023-05-08T11:22:26.391Z,21.27
2023-05-08T11:23:26.396Z,21.31
2023-05-08T11:24:26.586Z,21.33
2023-05-08T11:25:26.399Z,21.56
2023-05-08T11:26:26.382Z,21.76
2023-05-08T11:27:26.391Z,21.84
2023-05-08T11:28:26.371Z,21.82
2023-05-08T11:29:26.375Z,21.91
2023-05-08T11:30:26.435Z,22.05
2023-05-08T11:31:26.509Z,22.13
2023-05-08T11:32:26.498Z,21.96
2023-05-08T11:33:26.523Z,22.13
2023-05-08T11:34:26.543Z,22.24
2023-05-08T11:35:26.555Z,22.41
2023-05-08T11:36:26.578Z,22.47
2023-05-08T11:37:26.667Z,22.67
2023-05-08T11:38:26.678Z,22.77
2023-05-08T11:39:26.683Z,22.91
2023-05-08T11:40:26.715Z,22.99
2023-05-08T11:41:26.756Z,22.94
2023-05-08T11:42:26.826Z,22.90
2023-05-08T11:43:26.868Z,22.99
2023-05-08T11:44:26.912Z,22.79
2023-05-08T11:45:26.920Z,22.65
2023-05-08T11:46:26.968Z,22.51
2023-05-08T11:47:26.988Z,22.71
2023-05-08T11:48:27.017Z,22.58
2023-05-08T11:49:29.817Z,22.71
2023-05-08T11:50:27.049Z,22.59
2023-05-08T11:51:27.052Z,22.49
2023-05-08T11:52:27.053Z,22.60
2023-05-08T11:53:27.032Z,22.67
2023-05-08T11:54:27.078Z,22.90
2023-05-08T11:55:27.033Z,22.77
2023-05-08T11:56:27.054Z,22.98
2023-05-08T11:57:27.000Z,22.99
2023-05-08T11:58:27.017Z,23.07
2023-05-08T11:59:27.011Z,23.12
2023-05-08T12:00:27.047Z,23.30
2023-05-08T12:01:27.002Z,23.44
2023-05-08T12:02:27.055Z,23.49
2023-05-08T12:03:27.110Z,23.34
2023-05-08T12:04:27.067Z,23.42
2023-05-08T12:05:26.962Z,23.54
2023-05-08T12:06:26.999Z,23.52
2023-05-08T12:07:26.958Z,23.60
2023-05-08T12:08:26.970Z,23.35
2023-05-08T12:09:26.988Z,23.28
2023-05-08T12:10:26.910Z,23.29
2023-05-08T12:11:26.929Z,23.59
2023-05-08T12:12:26.907Z,23.59
2023-05-08T12:13:27.042Z,23.53
2023-05-08T12:14:26.958Z,23.39
2023-05-08T12:15:26.933Z,23.12
2023-05-08T12:16:26.892Z,22.97
2023-05-08T12:17:27.027Z,23.13
2023-05-08T12:18:26.873Z,23.52
2023-05-08T12:19:26.868Z,23.90
2023-05-08T12:20:26.875Z,24.06
2023-05-08T12:21:26.851Z,24.20
2023-05-08T12:22:26.844Z,24.24
2023-05-08T12:23:26.857Z,24.25
2023-05-08T12:24:27.014Z,23.92
2023-05-08T12:25:26.930Z,23.44
2023-05-08T12:26:26.845Z,23.52
2023-05-08T12:27:26.867Z,23.81
2023-05-08T12:28:26.839Z,24.04
2023-05-08T12:29:26.835Z,23.75
2023-05-08T12:30:26.839Z,23.25
2023-05-08T12:31:26.888Z,23.13
2023-05-08T12:32:28.973Z,23.07
2023-05-08T12:33:26.795Z,22.93
2023-05-08T12:34:26.836Z,22.88
2023-05-08T12:35:26.839Z,22.68
2023-05-08T12:36:26.855Z,22.94
2023-05-08T12:37:26.919Z,23.26
2023-05-08T12:38:26.954Z,23.47
2023-05-08T12:39:26.966Z,23.45
2023-05-08T12:40:26.975Z,23.32
2023-05-08T12:41:27.030Z,23.28
2023-05-08T12:42:27.045Z,23.34
2023-05-08T12:43:27.184Z,23.31
2023-05-08T12:44:27.095Z,23.03
2023-05-08T12:45:27.170Z,22.93
2023-05-08T12:46:27.254Z,23.12
2023-05-08T12:47:27.267Z,23.08
2023-05-08T12:48:27.273Z,23.25
2023-05-08T12:49:27.274Z,23.41
2023-05-08T12:50:27.282Z,23.11
2023-05-08T12:51:27.343Z,23.22
2023-05-08T12:52:27.342Z,23.37
2023-05-08T12:53:27.362Z,23.23